Triune, Tennessee
Current Conditions -  °F | °C
As of 7:53 PM on Sunday 21 Dec 2014 (Local Time) from KBNA Reporting Station
Broken Clouds Broken Clouds  
Wind Chill: 45°   Ceiling: 4800
Heat Index: 49°   Visibility: 10mi
Dew Point: 37°   Wind: 8mph
Humidity: 64%   Direction: 110°ESE
Pressure: 30.05"   Gusts: NA
Location:  35.8792°N, 86.6176°W
Report Text: KBNA 220153Z 11007KT 10SM BKN048 09/03 A3005 RMK AO2 SLP178 T00940028
Loading
Personal Weather Stations






























Interactive Weather Map New forecast layout! Learn more

10-Day Weather Forecast

Advertisements
Track Severe Weather on mobile